createdAt,value
2018-06-21T00:00:02.406Z,17.73
2018-06-21T00:03:07.158Z,23.27
2018-06-21T00:06:11.686Z,24.40
2018-06-21T00:09:15.964Z,22.10
2018-06-21T00:12:20.341Z,21.77
2018-06-21T00:15:24.636Z,18.00
2018-06-21T00:18:28.873Z,22.57
2018-06-21T00:21:33.133Z,15.73
2018-06-21T00:24:37.423Z,14.97
2018-06-21T00:27:41.681Z,17.00
2018-06-21T00:30:46.002Z,19.50
2018-06-21T00:33:50.285Z,18.00
2018-06-21T00:36:54.614Z,14.33
2018-06-21T00:39:58.901Z,15.63
2018-06-21T00:43:03.237Z,20.80
2018-06-21T00:46:07.649Z,13.50
2018-06-21T00:49:11.981Z,15.60
2018-06-21T00:52:16.253Z,12.13
2018-06-21T00:56:29.909Z,17.13
2018-06-21T00:59:34.177Z,10.80
2018-06-21T01:02:38.505Z,13.97
2018-06-21T01:05:42.761Z,8.63
2018-06-21T01:08:47.119Z,11.97
2018-06-21T01:11:51.466Z,10.87
2018-06-21T01:14:55.853Z,10.70
2018-06-21T01:18:00.128Z,12.73
2018-06-21T01:21:04.844Z,11.20
2018-06-21T01:24:09.282Z,19.70
2018-06-21T01:27:13.665Z,7.37
2018-06-21T01:30:17.954Z,14.57
2018-06-21T01:33:22.296Z,6.37
2018-06-21T01:36:26.557Z,6.50
2018-06-21T01:39:30.916Z,12.20
2018-06-21T01:42:35.268Z,6.63
2018-06-21T01:45:40.966Z,7.93
2018-06-21T01:48:46.200Z,5.63
2018-06-21T01:51:51.343Z,9.20
2018-06-21T01:54:57.301Z,7.03
2018-06-21T01:58:02.619Z,4.70
2018-06-21T02:01:06.949Z,8.60
2018-06-21T02:04:11.369Z,6.60
2018-06-21T02:07:15.872Z,7.63
2018-06-21T02:10:20.237Z,7.47
2018-06-21T02:13:24.777Z,5.10
2018-06-21T02:16:29.101Z,7.43
2018-06-21T02:19:33.496Z,6.87
2018-06-21T02:22:37.800Z,9.77
2018-06-21T02:25:42.158Z,4.73
2018-06-21T02:28:47.894Z,7.70
2018-06-21T02:31:52.203Z,7.47
2018-06-21T02:34:56.990Z,5.60
2018-06-21T02:38:01.370Z,6.50
2018-06-21T02:41:05.875Z,5.70
2018-06-21T02:44:10.781Z,7.17
2018-06-21T02:47:15.141Z,7.50
2018-06-21T02:50:20.435Z,5.87
2018-06-21T02:53:24.789Z,5.37
2018-06-21T02:56:29.107Z,7.20
2018-06-21T02:59:33.471Z,5.07
2018-06-21T03:02:37.749Z,5.73
2018-06-21T03:05:42.042Z,5.13
2018-06-21T03:08:46.691Z,3.57
2018-06-21T03:11:51.006Z,4.03
2018-06-21T03:14:55.645Z,4.37
2018-06-21T03:18:00.016Z,6.17
2018-06-21T03:21:04.361Z,4.70
2018-06-21T03:24:08.687Z,7.07
2018-06-21T03:27:13.235Z,4.57
2018-06-21T03:30:17.606Z,2.60
2018-06-21T03:33:21.915Z,3.77
2018-06-21T03:36:26.168Z,7.60
2018-06-21T03:39:30.896Z,4.57
2018-06-21T03:42:35.264Z,5.00
2018-06-21T03:45:39.641Z,5.73
2018-06-21T03:48:44.010Z,9.37
2018-06-21T03:51:48.520Z,6.13
2018-06-21T03:54:53.449Z,8.00
2018-06-21T03:57:57.863Z,4.87
2018-06-21T04:01:02.181Z,5.67
2018-06-21T04:04:06.481Z,7.93
2018-06-21T04:07:19.585Z,3.63
2018-06-21T04:10:23.879Z,7.80
2018-06-21T04:13:28.178Z,6.60
2018-06-21T04:16:32.437Z,6.90
2018-06-21T04:19:37.093Z,3.13
2018-06-21T04:22:41.420Z,3.80
2018-06-21T04:25:45.761Z,6.30
2018-06-21T04:28:50.091Z,6.33
2018-06-21T04:31:54.401Z,8.40
2018-06-21T04:34:58.682Z,5.07
2018-06-21T04:38:03.041Z,6.67
2018-06-21T04:41:07.290Z,6.43
2018-06-21T04:44:11.720Z,4.27
2018-06-21T04:47:16.006Z,3.07
2018-06-21T04:50:20.426Z,6.50
2018-06-21T04:53:24.799Z,7.03
2018-06-21T04:56:29.098Z,7.23
2018-06-21T04:59:33.408Z,5.40
2018-06-21T05:02:37.688Z,5.77
2018-06-21T05:05:41.707Z,6.07
2018-06-21T05:08:46.009Z,3.57
2018-06-21T05:11:50.243Z,3.43
2018-06-21T05:14:54.533Z,8.60
2018-06-21T05:17:58.848Z,5.80
2018-06-21T05:21:03.223Z,6.37
2018-06-21T05:24:07.663Z,5.77
2018-06-21T05:27:12.279Z,4.33
2018-06-21T05:30:16.641Z,6.73
2018-06-21T05:33:21.004Z,7.10
2018-06-21T05:36:25.313Z,5.17
2018-06-21T05:39:29.604Z,6.53
2018-06-21T05:42:33.912Z,4.63
2018-06-21T05:45:38.260Z,5.23
2018-06-21T05:48:42.585Z,4.60
2018-06-21T05:51:47.197Z,4.90
2018-06-21T05:54:51.502Z,5.93
2018-06-21T05:57:55.852Z,9.63
2018-06-21T06:01:00.136Z,4.10
2018-06-21T06:04:04.458Z,8.93
2018-06-21T06:07:08.774Z,6.43
2018-06-21T06:10:13.128Z,4.73
2018-06-21T06:13:17.410Z,5.77
2018-06-21T06:16:21.924Z,3.73
2018-06-21T06:19:26.366Z,8.27
2018-06-21T06:22:30.879Z,6.93
2018-06-21T06:25:35.347Z,6.87
2018-06-21T06:28:39.683Z,9.30
2018-06-21T06:31:44.071Z,9.03
2018-06-21T06:34:48.575Z,6.50
2018-06-21T06:37:52.804Z,4.43
2018-06-21T06:40:57.241Z,7.80
2018-06-21T06:44:01.533Z,4.63
2018-06-21T06:47:06.092Z,8.07
2018-06-21T06:50:10.377Z,5.77
2018-06-21T06:53:14.664Z,3.93
2018-06-21T06:56:19.030Z,9.40
2018-06-21T06:59:23.361Z,3.80
2018-06-21T07:02:27.668Z,6.43
2018-06-21T07:05:31.993Z,6.93
2018-06-21T07:08:36.280Z,4.80
2018-06-21T07:11:40.645Z,4.43
2018-06-21T07:14:44.934Z,5.03
2018-06-21T07:17:49.220Z,9.03
2018-06-21T07:20:53.578Z,4.60
2018-06-21T07:23:57.900Z,9.03
2018-06-21T07:27:02.268Z,9.97
2018-06-21T07:30:07.438Z,8.67
2018-06-21T07:33:11.773Z,5.90
2018-06-21T07:36:16.149Z,9.77
2018-06-21T07:39:20.618Z,5.60
2018-06-21T07:42:24.790Z,2.97
2018-06-21T07:45:29.174Z,3.47
2018-06-21T07:48:33.477Z,6.83
2018-06-21T07:51:37.813Z,5.70
2018-06-21T07:54:42.135Z,2.60
2018-06-21T07:57:46.451Z,4.37
2018-06-21T08:00:51.274Z,1.87
2018-06-21T08:03:55.807Z,4.60
2018-06-21T08:07:00.131Z,8.60
2018-06-21T08:10:04.466Z,5.70
2018-06-21T08:13:09.734Z,6.87
2018-06-21T08:16:14.792Z,8.93
2018-06-21T08:19:19.167Z,7.07
2018-06-21T08:22:24.640Z,10.40
2018-06-21T08:25:29.551Z,5.33
2018-06-21T08:28:34.484Z,3.10
2018-06-21T08:31:42.698Z,2.07
2018-06-21T08:34:49.087Z,3.07
2018-06-21T08:38:03.740Z,4.53
2018-06-21T08:41:08.850Z,3.53
2018-06-21T08:44:15.566Z,4.33
2018-06-21T08:47:21.772Z,3.50
2018-06-21T08:50:28.873Z,5.57
2018-06-21T08:53:34.526Z,6.33
2018-06-21T08:56:39.674Z,4.07
2018-06-21T08:59:47.751Z,2.53
2018-06-21T09:02:53.113Z,4.17
2018-06-21T09:06:01.705Z,5.80
2018-06-21T09:09:12.107Z,3.07
2018-06-21T09:12:20.738Z,4.50
2018-06-21T09:15:36.777Z,4.30
2018-06-21T09:18:50.136Z,4.20
2018-06-21T09:22:00.878Z,5.77
2018-06-21T09:25:06.377Z,5.07
2018-06-21T09:28:12.994Z,5.03
2018-06-21T09:31:23.337Z,4.97
2018-06-21T09:34:34.641Z,5.00
2018-06-21T09:37:51.988Z,6.47
2018-06-21T09:41:07.925Z,3.57
2018-06-21T09:44:24.373Z,5.13
2018-06-21T09:47:38.441Z,3.63
2018-06-21T09:50:51.202Z,5.83
2018-06-21T09:54:03.462Z,2.27
2018-06-21T09:57:16.165Z,2.93
2018-06-21T10:00:32.191Z,3.53
2018-06-21T10:07:02.346Z,3.73
2018-06-21T10:10:20.247Z,1.93
2018-06-21T10:13:26.099Z,3.50
2018-06-21T10:16:33.333Z,3.60
2018-06-21T10:19:44.521Z,4.17
2018-06-21T10:22:59.332Z,3.13
2018-06-21T10:26:10.941Z,2.03
2018-06-21T10:29:24.998Z,2.73
2018-06-21T10:32:46.959Z,1.40
2018-06-21T10:36:03.010Z,2.77
2018-06-21T10:39:20.324Z,5.00
2018-06-21T10:42:33.013Z,1.77
2018-06-21T10:45:44.915Z,3.70
2018-06-21T10:48:53.674Z,4.17
2018-06-21T10:52:02.531Z,4.10
2018-06-21T10:58:33.640Z,4.93
2018-06-21T11:01:50.140Z,4.30
2018-06-21T11:05:02.716Z,5.30
2018-06-21T11:08:17.656Z,4.47
2018-06-21T11:11:31.683Z,3.10
2018-06-21T11:18:02.299Z,8.23
2018-06-21T11:21:12.559Z,6.20
2018-06-21T11:24:21.454Z,4.40
2018-06-21T11:27:29.653Z,4.57
2018-06-21T11:30:42.149Z,3.00
2018-06-21T11:34:01.139Z,8.13
2018-06-21T11:37:21.940Z,5.47
2018-06-21T11:40:37.043Z,6.00
2018-06-21T11:47:30.814Z,7.33
2018-06-21T11:50:44.925Z,6.93
2018-06-21T11:53:58.596Z,5.30
2018-06-21T11:57:21.418Z,4.83
2018-06-21T12:00:32.561Z,4.77
2018-06-21T12:03:54.852Z,4.67
2018-06-21T12:07:06.970Z,4.90
2018-06-21T12:10:17.814Z,4.23
2018-06-21T12:13:36.853Z,8.97
2018-06-21T12:16:56.854Z,6.50
2018-06-21T12:20:21.456Z,4.30
2018-06-21T12:23:34.160Z,5.53
2018-06-21T12:26:47.402Z,4.57
2018-06-21T12:30:11.545Z,3.03
2018-06-21T12:33:25.611Z,5.87
2018-06-21T12:36:40.071Z,5.73
2018-06-21T12:43:12.295Z,6.07
2018-06-21T12:46:36.080Z,8.07
2018-06-21T12:49:50.814Z,4.63
2018-06-21T12:53:03.159Z,5.20
2018-06-21T12:56:17.879Z,5.60
2018-06-21T12:59:34.532Z,5.83
2018-06-21T13:02:47.013Z,6.53
2018-06-21T13:05:51.430Z,6.60
2018-06-21T13:09:12.822Z,3.83
2018-06-21T13:12:35.606Z,5.40
2018-06-21T13:15:40.464Z,6.67
2018-06-21T13:18:44.969Z,6.17
2018-06-21T13:21:49.566Z,4.77
2018-06-21T13:24:54.166Z,7.83
2018-06-21T13:27:59.004Z,5.53
2018-06-21T13:31:03.368Z,10.57
2018-06-21T13:34:07.754Z,4.83
2018-06-21T13:37:12.210Z,2.80
2018-06-21T13:40:16.819Z,7.40
2018-06-21T13:43:20.995Z,3.93
2018-06-21T13:46:25.351Z,4.17
2018-06-21T13:49:29.858Z,5.50
2018-06-21T13:52:34.191Z,5.00
2018-06-21T13:55:38.505Z,5.47
2018-06-21T13:58:42.852Z,4.40
2018-06-21T14:01:47.276Z,3.33
2018-06-21T14:04:51.567Z,4.47
2018-06-21T14:07:56.061Z,3.47
2018-06-21T14:11:00.238Z,3.07
2018-06-21T14:14:04.668Z,3.53
2018-06-21T14:17:08.972Z,5.23
2018-06-21T14:20:13.390Z,3.47
2018-06-21T14:23:17.704Z,2.97
2018-06-21T14:26:22.026Z,3.90
2018-06-21T14:29:26.430Z,4.80
2018-06-21T14:32:30.764Z,7.03
2018-06-21T14:35:35.155Z,4.97
2018-06-21T14:38:39.759Z,7.53
2018-06-21T14:41:44.138Z,4.53
2018-06-21T14:44:48.470Z,4.30
2018-06-21T14:47:59.207Z,2.80
2018-06-21T14:51:03.735Z,3.63
2018-06-21T14:54:08.135Z,3.33
2018-06-21T14:57:12.553Z,3.33
2018-06-21T15:00:16.844Z,6.33
2018-06-21T15:03:21.253Z,3.17
2018-06-21T15:06:25.620Z,2.97
2018-06-21T15:09:29.970Z,4.47
2018-06-21T15:12:34.274Z,2.63
2018-06-21T15:15:38.698Z,6.47
2018-06-21T15:18:42.989Z,4.30
2018-06-21T15:21:47.345Z,6.07
2018-06-21T15:24:51.657Z,1.23
2018-06-21T15:27:56.019Z,7.23
2018-06-21T15:31:00.401Z,2.80
2018-06-21T15:34:04.509Z,5.53
2018-06-21T15:37:08.979Z,6.23
2018-06-21T15:40:13.349Z,3.00
2018-06-21T15:43:17.779Z,4.50
2018-06-21T15:46:22.171Z,5.70
2018-06-21T15:49:26.584Z,6.00
2018-06-21T15:52:31.279Z,3.17
2018-06-21T15:55:35.649Z,4.90
2018-06-21T15:58:40.353Z,5.20
2018-06-21T16:01:44.705Z,4.63
2018-06-21T16:04:49.037Z,6.03
2018-06-21T16:07:53.457Z,4.27
2018-06-21T16:10:58.229Z,5.73
2018-06-21T16:14:02.621Z,2.73
2018-06-21T16:17:07.210Z,3.37
2018-06-21T16:20:11.586Z,3.70
2018-06-21T16:23:16.149Z,4.57
2018-06-21T16:26:20.478Z,4.00
2018-06-21T16:29:24.905Z,5.30
2018-06-21T16:32:29.443Z,3.70
2018-06-21T16:35:33.933Z,3.77
2018-06-21T16:38:38.623Z,7.43
2018-06-21T16:41:43.251Z,3.33
2018-06-21T16:44:47.636Z,6.10
2018-06-21T16:47:52.173Z,2.43
2018-06-21T16:50:56.928Z,5.43
2018-06-21T16:54:01.309Z,2.60
2018-06-21T16:57:05.947Z,5.90
2018-06-21T17:00:10.303Z,5.00
2018-06-21T17:03:14.892Z,4.20
2018-06-21T17:06:19.597Z,8.50
2018-06-21T17:09:24.401Z,6.30
2018-06-21T17:12:29.329Z,5.57
2018-06-21T17:15:33.425Z,3.83
2018-06-21T17:18:37.976Z,6.63
2018-06-21T17:21:42.423Z,5.10
2018-06-21T17:24:46.833Z,6.77
2018-06-21T17:27:51.242Z,2.57
2018-06-21T17:30:55.620Z,4.80
2018-06-21T17:34:00.115Z,5.97
2018-06-21T17:37:04.546Z,6.83
2018-06-21T17:40:08.865Z,6.30
2018-06-21T17:43:13.353Z,7.23
2018-06-21T17:46:17.890Z,4.97
2018-06-21T17:49:23.688Z,5.40
2018-06-21T17:52:28.923Z,7.80
2018-06-21T17:55:33.348Z,5.43
2018-06-21T17:58:37.798Z,5.23
2018-06-21T18:01:42.379Z,6.27
2018-06-21T18:04:47.604Z,7.20
2018-06-21T18:07:52.074Z,4.50
2018-06-21T18:10:56.556Z,7.30
2018-06-21T18:14:01.026Z,3.00
2018-06-21T18:17:05.409Z,4.50
2018-06-21T18:20:09.749Z,12.83
2018-06-21T18:23:14.111Z,5.10
2018-06-21T18:26:18.488Z,9.07
2018-06-21T18:29:23.215Z,5.13
2018-06-21T18:32:29.151Z,9.70
2018-06-21T18:35:34.595Z,4.13
2018-06-21T18:38:39.013Z,6.07
2018-06-21T18:41:44.494Z,7.30
2018-06-21T18:44:50.894Z,9.17
2018-06-21T18:47:57.556Z,7.03
2018-06-21T18:51:04.114Z,6.67
2018-06-21T18:54:10.347Z,7.03
2018-06-21T18:57:22.145Z,6.07
2018-06-21T19:00:34.602Z,5.53
2018-06-21T19:03:45.316Z,5.20
2018-06-21T19:06:54.869Z,4.97
2018-06-21T19:10:08.829Z,4.77
2018-06-21T19:13:18.899Z,6.33
2018-06-21T19:16:26.041Z,7.43
2018-06-21T19:19:36.923Z,10.67
2018-06-21T19:22:44.895Z,6.50
2018-06-21T19:25:55.864Z,5.23
2018-06-21T19:29:06.177Z,7.70
2018-06-21T19:32:21.211Z,7.07
2018-06-21T19:35:33.782Z,10.17
2018-06-21T19:38:43.046Z,9.00
2018-06-21T19:41:49.194Z,6.93
2018-06-21T19:44:53.733Z,4.80
2018-06-21T19:47:58.700Z,10.17
2018-06-21T19:51:08.672Z,7.23
2018-06-21T19:54:23.362Z,5.73
2018-06-21T19:57:31.190Z,8.53
2018-06-21T20:00:41.345Z,9.03
2018-06-21T20:04:18.660Z,8.63
2018-06-21T20:07:30.642Z,13.83
2018-06-21T20:10:53.636Z,9.77
2018-06-21T20:14:03.481Z,8.20
2018-06-21T20:17:19.287Z,9.43
2018-06-21T20:20:40.078Z,5.80
2018-06-21T20:24:04.180Z,7.23
2018-06-21T20:27:19.574Z,5.20
2018-06-21T20:30:34.976Z,8.67
2018-06-21T20:33:53.148Z,6.93
2018-06-21T20:37:13.171Z,8.00
2018-06-21T20:40:23.668Z,9.00
2018-06-21T20:43:37.117Z,7.07
2018-06-21T20:46:55.199Z,6.67
2018-06-21T20:50:06.654Z,5.60
2018-06-21T20:53:20.014Z,6.67
2018-06-21T20:56:55.249Z,5.73
2018-06-21T21:00:06.480Z,5.20
2018-06-21T21:06:48.796Z,10.20
2018-06-21T21:10:05.198Z,6.43
2018-06-21T21:13:21.641Z,5.63
2018-06-21T21:16:34.703Z,6.97
2018-06-21T21:19:50.882Z,9.97
2018-06-21T21:22:59.480Z,10.43
2018-06-21T21:26:37.046Z,5.60
2018-06-21T21:29:56.232Z,9.40
2018-06-21T21:33:23.214Z,8.27
2018-06-21T21:36:39.174Z,8.23
2018-06-21T21:39:59.219Z,15.40
2018-06-21T21:43:29.253Z,7.33
2018-06-21T21:46:44.500Z,11.20
2018-06-21T21:49:54.883Z,9.13
2018-06-21T21:53:15.546Z,8.50
2018-06-21T21:56:32.212Z,13.03
2018-06-21T21:59:36.509Z,7.97
2018-06-21T22:02:40.948Z,7.53
2018-06-21T22:05:45.539Z,9.07
2018-06-21T22:08:49.924Z,8.20
2018-06-21T22:11:54.288Z,12.80
2018-06-21T22:14:58.676Z,14.93
2018-06-21T22:18:03.020Z,7.40
2018-06-21T22:21:07.419Z,7.40
2018-06-21T22:24:11.759Z,4.63
2018-06-21T22:27:16.090Z,11.97
2018-06-21T22:30:20.381Z,5.03
2018-06-21T22:33:24.662Z,9.70
2018-06-21T22:36:29.183Z,9.97
2018-06-21T22:39:33.490Z,5.97
2018-06-21T22:42:41.235Z,8.07
2018-06-21T22:45:54.180Z,6.97
2018-06-21T22:49:11.299Z,7.40
2018-06-21T22:52:32.296Z,9.97
2018-06-21T22:59:28.750Z,4.63
2018-06-21T23:02:43.830Z,8.67
2018-06-21T23:06:08.963Z,5.27
2018-06-21T23:09:28.471Z,9.27
2018-06-21T23:12:44.507Z,5.70
2018-06-21T23:16:01.494Z,8.90
2018-06-21T23:23:18.008Z,7.77
2018-06-21T23:26:51.844Z,7.90
2018-06-21T23:30:13.509Z,5.70
2018-06-21T23:33:35.541Z,4.03
2018-06-21T23:36:51.548Z,5.10
2018-06-21T23:40:01.593Z,6.13
2018-06-21T23:43:13.532Z,6.30
2018-06-21T23:46:24.133Z,7.00
2018-06-21T23:49:40.429Z,6.77
2018-06-21T23:57:15.137Z,9.17
